createdAt,value
2018-09-03T00:01:51.474Z,19.50
2018-09-03T00:04:26.560Z,19.50
2018-09-03T00:07:02.380Z,19.50
2018-09-03T00:09:42.068Z,19.50
2018-09-03T00:12:17.408Z,19.40
2018-09-03T00:14:52.498Z,19.40
2018-09-03T00:17:27.747Z,19.30
2018-09-03T00:20:03.631Z,19.20
2018-09-03T00:22:38.714Z,19.20
2018-09-03T00:25:14.472Z,19.20
2018-09-03T00:27:49.883Z,19.10
2018-09-03T00:30:24.902Z,19.10
2018-09-03T00:33:05.051Z,19.00
2018-09-03T00:36:43.828Z,19.00
2018-09-03T00:39:24.338Z,18.90
2018-09-03T00:42:04.842Z,18.90
2018-09-03T00:44:44.948Z,18.80
2018-09-03T00:47:20.253Z,18.80
2018-09-03T00:49:55.325Z,18.80
2018-09-03T00:52:30.297Z,18.70
2018-09-03T00:55:05.611Z,18.60
2018-09-03T00:57:40.993Z,18.70
2018-09-03T01:00:15.811Z,18.60
2018-09-03T01:02:50.890Z,18.60
2018-09-03T01:05:26.027Z,18.60
2018-09-03T01:08:01.248Z,18.60
2018-09-03T01:10:36.271Z,18.50
2018-09-03T01:13:14.092Z,18.60
2018-09-03T01:15:49.737Z,18.60
2018-09-03T01:18:24.939Z,18.60
2018-09-03T01:21:00.104Z,18.60
2018-09-03T01:23:35.316Z,18.60
2018-09-03T01:26:10.442Z,18.60
2018-09-03T01:28:45.384Z,18.60
2018-09-03T01:31:21.407Z,18.50
2018-09-03T01:33:56.777Z,18.50
2018-09-03T01:36:31.773Z,18.50
2018-09-03T01:39:08.503Z,18.60
2018-09-03T01:41:43.755Z,18.60
2018-09-03T01:44:19.314Z,18.60
2018-09-03T01:46:55.054Z,18.60
2018-09-03T01:49:36.542Z,18.60
2018-09-03T01:52:11.682Z,18.60
2018-09-03T01:54:46.814Z,18.70
2018-09-03T01:57:21.875Z,18.70
2018-09-03T01:59:56.948Z,18.70
2018-09-03T02:02:32.104Z,18.60
2018-09-03T02:05:07.741Z,18.70
2018-09-03T02:07:43.260Z,18.70
2018-09-03T02:10:18.862Z,18.70
2018-09-03T02:12:56.882Z,18.70
2018-09-03T02:15:32.329Z,18.70
2018-09-03T02:18:07.631Z,18.70
2018-09-03T02:20:42.720Z,18.70
2018-09-03T02:23:17.526Z,18.70
2018-09-03T02:25:52.413Z,18.70
2018-09-03T02:28:27.467Z,18.70
2018-09-03T02:31:02.409Z,18.70
2018-09-03T02:33:37.431Z,18.70
2018-09-03T02:36:12.721Z,18.70
2018-09-03T02:38:48.301Z,18.80
2018-09-03T02:41:23.182Z,18.80
2018-09-03T02:43:58.389Z,18.80
2018-09-03T02:46:33.364Z,18.80
2018-09-03T02:49:08.862Z,18.80
2018-09-03T02:51:43.800Z,18.80
2018-09-03T02:54:18.981Z,18.80
2018-09-03T02:56:54.012Z,18.90
2018-09-03T02:59:28.819Z,18.80
2018-09-03T03:02:04.550Z,18.80
2018-09-03T03:04:39.522Z,18.90
2018-09-03T03:07:14.838Z,18.90
2018-09-03T03:09:50.753Z,18.90
2018-09-03T03:12:26.464Z,18.90
2018-09-03T03:15:03.018Z,18.90
2018-09-03T03:17:37.956Z,18.90
2018-09-03T03:20:13.359Z,18.90
2018-09-03T03:22:48.723Z,18.90
2018-09-03T03:25:25.497Z,18.80
2018-09-03T03:28:00.874Z,18.90
2018-09-03T03:30:36.402Z,18.90
2018-09-03T03:33:11.453Z,18.90
2018-09-03T03:35:46.664Z,18.90
2018-09-03T03:38:22.334Z,18.90
2018-09-03T03:40:57.405Z,19.00
2018-09-03T03:43:39.033Z,19.00
2018-09-03T03:49:13.294Z,19.00
2018-09-03T03:51:48.622Z,19.00
2018-09-03T03:54:23.690Z,19.00
2018-09-03T03:56:59.319Z,19.00
2018-09-03T03:59:34.391Z,19.00
2018-09-03T04:02:09.533Z,19.00
2018-09-03T04:04:44.498Z,19.00
2018-09-03T04:07:19.707Z,19.00
2018-09-03T04:09:55.451Z,19.00
2018-09-03T04:12:30.562Z,19.00
2018-09-03T04:15:06.611Z,19.00
2018-09-03T04:17:41.631Z,19.00
2018-09-03T04:20:16.728Z,19.00
2018-09-03T04:22:52.771Z,19.00
2018-09-03T04:25:28.831Z,19.00
2018-09-03T04:28:04.111Z,19.00
2018-09-03T04:30:39.214Z,19.00
2018-09-03T04:33:14.427Z,19.00
2018-09-03T04:35:50.310Z,19.00
2018-09-03T04:38:25.251Z,19.00
2018-09-03T04:41:00.690Z,19.00
2018-09-03T04:43:36.435Z,19.00
2018-09-03T04:46:11.532Z,19.00
2018-09-03T04:48:46.712Z,19.00
2018-09-03T04:51:21.943Z,19.00
2018-09-03T04:53:57.752Z,18.90
2018-09-03T04:56:33.088Z,19.00
2018-09-03T04:59:08.448Z,19.00
2018-09-03T05:01:43.563Z,19.00
2018-09-03T05:04:18.759Z,19.00
2018-09-03T05:06:54.003Z,19.00
2018-09-03T05:09:29.401Z,19.00
2018-09-03T05:12:05.336Z,19.00
2018-09-03T05:14:40.285Z,19.00
2018-09-03T05:17:15.430Z,19.00
2018-09-03T05:19:50.364Z,19.00
2018-09-03T05:22:25.299Z,18.90
2018-09-03T05:25:00.404Z,18.90
2018-09-03T05:27:35.577Z,18.90
2018-09-03T05:30:10.518Z,18.90
2018-09-03T05:32:46.028Z,19.00
2018-09-03T05:35:21.186Z,19.00
2018-09-03T05:37:56.744Z,19.00
2018-09-03T05:40:31.844Z,19.00
2018-09-03T05:43:07.343Z,19.00
2018-09-03T05:45:42.529Z,19.00
2018-09-03T05:48:17.284Z,19.00
2018-09-03T05:50:53.459Z,19.00
2018-09-03T05:53:28.513Z,19.10
2018-09-03T05:56:03.970Z,19.10
2018-09-03T05:58:39.351Z,19.20
2018-09-03T06:01:14.556Z,19.20
2018-09-03T06:03:49.838Z,19.20
2018-09-03T06:06:24.667Z,19.20
2018-09-03T06:09:00.202Z,19.20
2018-09-03T06:11:35.636Z,19.20
2018-09-03T06:14:11.010Z,19.20
2018-09-03T06:16:46.108Z,19.20
2018-09-03T06:19:21.098Z,19.30
2018-09-03T06:21:56.287Z,19.40
2018-09-03T06:24:31.796Z,19.50
2018-09-03T06:27:06.959Z,19.50
2018-09-03T06:29:42.214Z,19.60
2018-09-03T06:32:17.344Z,19.60
2018-09-03T06:34:53.077Z,19.70
2018-09-03T06:37:28.257Z,19.70
2018-09-03T06:40:04.603Z,19.70
2018-09-03T06:42:39.585Z,19.70
2018-09-03T06:45:15.867Z,19.80
2018-09-03T06:47:51.258Z,19.80
2018-09-03T06:50:29.562Z,19.90
2018-09-03T06:53:04.811Z,19.90
2018-09-03T06:55:40.720Z,20.00
2018-09-03T06:58:15.839Z,20.00
2018-09-03T07:00:50.851Z,20.00
2018-09-03T07:03:26.084Z,19.90
2018-09-03T07:06:01.046Z,19.90
2018-09-03T07:08:36.817Z,19.80
2018-09-03T07:11:12.564Z,19.70
2018-09-03T07:13:47.904Z,19.70
2018-09-03T07:16:23.234Z,19.70
2018-09-03T07:18:58.300Z,19.70
2018-09-03T07:21:34.971Z,19.70
2018-09-03T07:24:10.007Z,19.60
2018-09-03T07:26:45.560Z,19.60
2018-09-03T07:29:21.113Z,19.60
2018-09-03T07:31:56.265Z,19.60
2018-09-03T07:34:31.267Z,19.60
2018-09-03T07:37:06.620Z,19.60
2018-09-03T07:39:41.383Z,19.70
2018-09-03T07:42:16.936Z,19.80
2018-09-03T07:44:52.998Z,19.90
2018-09-03T07:47:28.613Z,20.10
2018-09-03T07:50:04.158Z,20.20
2018-09-03T07:52:39.717Z,20.30
2018-09-03T07:55:15.348Z,20.30
2018-09-03T07:57:50.603Z,20.30
2018-09-03T08:00:25.836Z,20.30
2018-09-03T08:03:07.377Z,20.20
2018-09-03T08:05:42.319Z,20.20
2018-09-03T08:08:17.639Z,20.10
2018-09-03T08:10:53.222Z,20.00
2018-09-03T08:13:33.836Z,20.00
2018-09-03T08:16:10.233Z,19.90
2018-09-03T08:18:45.712Z,19.70
2018-09-03T08:21:20.959Z,19.40
2018-09-03T08:23:56.133Z,19.20
2018-09-03T08:26:31.207Z,18.90
2018-09-03T08:29:06.518Z,18.70
2018-09-03T08:31:41.600Z,18.60
2018-09-03T08:34:16.540Z,18.50
2018-09-03T08:36:51.478Z,18.40
2018-09-03T08:39:27.145Z,18.40
2018-09-03T08:42:02.481Z,18.40
2018-09-03T08:44:37.333Z,18.40
2018-09-03T08:47:12.943Z,18.60
2018-09-03T08:49:48.208Z,18.60
2018-09-03T08:52:23.589Z,18.70
2018-09-03T08:54:58.929Z,18.70
2018-09-03T08:57:34.402Z,18.70
2018-09-03T09:00:09.570Z,18.60
2018-09-03T09:02:44.753Z,18.50
2018-09-03T09:05:19.596Z,18.50
2018-09-03T09:07:54.670Z,18.50
2018-09-03T09:10:29.813Z,18.60
2018-09-03T09:13:04.930Z,18.60
2018-09-03T09:15:39.958Z,18.60
2018-09-03T09:18:15.408Z,18.70
2018-09-03T09:20:50.477Z,18.70
2018-09-03T09:23:25.795Z,18.80
2018-09-03T09:26:01.134Z,18.80
2018-09-03T09:28:36.242Z,18.90
2018-09-03T09:31:11.490Z,19.00
2018-09-03T09:33:46.649Z,19.00
2018-09-03T09:36:21.920Z,19.00
2018-09-03T09:38:56.944Z,19.00
2018-09-03T09:41:34.249Z,19.00
2018-09-03T09:44:09.676Z,19.00
2018-09-03T09:46:44.875Z,19.20
2018-09-03T09:49:20.227Z,19.30
2018-09-03T09:51:55.518Z,19.40
2018-09-03T09:54:30.962Z,19.50
2018-09-03T09:57:06.386Z,19.60
2018-09-03T09:59:41.123Z,19.70
2018-09-03T10:02:16.447Z,19.80
2018-09-03T10:04:52.182Z,20.00
2018-09-03T10:07:27.346Z,20.10
2018-09-03T10:10:02.417Z,20.10
2018-09-03T10:12:37.612Z,20.20
2018-09-03T10:15:12.684Z,20.30
2018-09-03T10:17:47.901Z,20.40
2018-09-03T10:20:23.443Z,20.40
2018-09-03T10:22:58.783Z,20.50
2018-09-03T10:25:33.995Z,20.50
2018-09-03T10:28:09.239Z,20.60
2018-09-03T10:30:44.906Z,20.80
2018-09-03T10:33:19.859Z,20.90
2018-09-03T10:35:54.718Z,21.00
2018-09-03T10:38:30.036Z,21.10
2018-09-03T10:41:05.382Z,21.20
2018-09-03T10:43:40.316Z,21.40
2018-09-03T10:46:15.239Z,21.50
2018-09-03T10:48:50.526Z,21.60
2018-09-03T10:51:26.172Z,21.60
2018-09-03T10:54:01.764Z,21.60
2018-09-03T10:56:36.951Z,21.80
2018-09-03T10:59:11.915Z,21.80
2018-09-03T11:01:47.435Z,21.80
2018-09-03T11:04:23.045Z,21.80
2018-09-03T11:06:58.395Z,21.90
2018-09-03T11:09:33.690Z,22.10
2018-09-03T11:12:08.932Z,22.20
2018-09-03T11:14:43.830Z,22.30
2018-09-03T11:17:19.116Z,22.40
2018-09-03T11:19:57.427Z,22.40
2018-09-03T11:22:33.202Z,22.50
2018-09-03T11:25:08.212Z,22.70
2018-09-03T11:27:43.507Z,22.80
2018-09-03T11:30:19.580Z,22.80
2018-09-03T11:32:57.884Z,22.80
2018-09-03T11:35:33.238Z,22.80
2018-09-03T11:38:08.590Z,22.80
2018-09-03T11:40:43.882Z,22.70
2018-09-03T11:43:19.349Z,22.70
2018-09-03T11:45:54.627Z,22.70
2018-09-03T11:48:29.533Z,22.60
2018-09-03T11:51:04.908Z,22.60
2018-09-03T11:53:40.452Z,22.60
2018-09-03T11:56:16.061Z,22.60
2018-09-03T11:58:51.098Z,22.50
2018-09-03T12:01:26.135Z,22.40
2018-09-03T12:04:00.943Z,22.40
2018-09-03T12:06:36.305Z,22.30
2018-09-03T12:09:12.405Z,22.20
2018-09-03T12:11:47.434Z,22.20
2018-09-03T12:14:25.543Z,22.10
2018-09-03T12:17:01.215Z,22.10
2018-09-03T12:19:36.574Z,22.00
2018-09-03T12:22:12.538Z,22.00
2018-09-03T12:24:47.699Z,22.00
2018-09-03T12:27:22.829Z,22.10
2018-09-03T12:29:58.183Z,22.20
2018-09-03T12:32:34.035Z,22.30
2018-09-03T12:35:09.334Z,22.30
2018-09-03T12:37:44.957Z,22.40
2018-09-03T12:40:20.126Z,22.40
2018-09-03T12:42:55.400Z,22.40
2018-09-03T12:45:35.745Z,22.30
2018-09-03T12:48:11.350Z,22.30
2018-09-03T12:50:46.846Z,22.40
2018-09-03T12:53:22.115Z,22.60
2018-09-03T12:55:57.561Z,22.80
2018-09-03T12:58:32.457Z,22.80
2018-09-03T13:01:07.853Z,23.00
2018-09-03T13:03:43.265Z,23.20
2018-09-03T13:06:18.656Z,23.40
2018-09-03T13:08:54.800Z,23.50
2018-09-03T13:11:29.658Z,23.50
2018-09-03T13:14:05.007Z,23.60
2018-09-03T13:16:40.413Z,23.60
2018-09-03T13:19:15.899Z,23.60
2018-09-03T13:21:50.974Z,23.70
2018-09-03T13:24:25.682Z,23.70
2018-09-03T13:27:01.005Z,23.80
2018-09-03T13:29:36.004Z,24.00
2018-09-03T13:32:11.252Z,24.10
2018-09-03T13:34:47.598Z,24.20
2018-09-03T13:37:23.215Z,24.20
2018-09-03T13:39:59.299Z,24.10
2018-09-03T13:42:34.536Z,24.10
2018-09-03T13:45:09.725Z,24.20
2018-09-03T13:47:45.340Z,24.30
2018-09-03T13:50:20.657Z,24.30
2018-09-03T13:52:55.829Z,24.40
2018-09-03T13:55:31.525Z,24.40
2018-09-03T13:58:07.077Z,24.40
2018-09-03T14:00:43.111Z,24.30
2018-09-03T14:03:18.226Z,24.40
2018-09-03T14:05:54.313Z,24.40
2018-09-03T14:08:29.483Z,24.40
2018-09-03T14:11:04.803Z,24.40
2018-09-03T14:13:40.324Z,24.40
2018-09-03T14:16:15.515Z,24.30
2018-09-03T14:18:57.103Z,24.10
2018-09-03T14:21:32.302Z,24.00
2018-09-03T14:24:10.859Z,24.00
2018-09-03T14:26:46.066Z,24.00
2018-09-03T14:29:21.407Z,24.00
2018-09-03T14:31:56.744Z,24.20
2018-09-03T14:34:26.655Z,24.30
2018-09-03T14:36:56.194Z,24.40
2018-09-03T14:39:26.414Z,24.50
2018-09-03T14:42:01.692Z,24.40
2018-09-03T14:44:36.820Z,24.40
2018-09-03T14:47:12.374Z,24.30
2018-09-03T14:49:47.983Z,24.20
2018-09-03T14:52:23.437Z,24.20
2018-09-03T14:55:00.589Z,24.10
2018-09-03T14:57:35.754Z,23.90
2018-09-03T15:00:11.108Z,23.60
2018-09-03T15:02:46.112Z,23.80
2018-09-03T15:05:21.721Z,23.70
2018-09-03T15:07:56.793Z,23.60
2018-09-03T15:10:31.978Z,23.60
2018-09-03T15:13:07.101Z,23.50
2018-09-03T15:15:42.970Z,23.40
2018-09-03T15:18:18.093Z,23.30
2018-09-03T15:20:53.635Z,23.30
2018-09-03T15:23:29.191Z,23.20
2018-09-03T15:26:04.767Z,23.20
2018-09-03T15:28:40.274Z,23.10
2018-09-03T15:31:15.504Z,23.10
2018-09-03T15:33:50.836Z,23.10
2018-09-03T15:36:26.575Z,23.10
2018-09-03T15:39:02.610Z,23.00
2018-09-03T15:41:37.794Z,23.00
2018-09-03T15:44:13.104Z,23.10
2018-09-03T15:46:48.903Z,23.10
2018-09-03T15:49:30.889Z,23.10
2018-09-03T15:52:06.479Z,23.10
2018-09-03T15:54:41.763Z,23.10
2018-09-03T15:57:17.261Z,23.00
2018-09-03T15:59:53.010Z,22.90
2018-09-03T16:02:28.437Z,22.80
2018-09-03T16:04:58.072Z,22.70
2018-09-03T16:07:33.229Z,22.70
2018-09-03T16:10:08.459Z,22.70
2018-09-03T16:12:44.232Z,22.70
2018-09-03T16:15:20.181Z,22.70
2018-09-03T16:17:55.295Z,22.70
2018-09-03T16:20:30.399Z,22.70
2018-09-03T16:23:06.229Z,22.70
2018-09-03T16:25:39.518Z,22.70
2018-09-03T16:28:14.666Z,22.70
2018-09-03T16:30:50.060Z,22.70
2018-09-03T16:33:26.682Z,22.60
2018-09-03T16:36:01.915Z,22.60
2018-09-03T16:38:37.272Z,22.70
2018-09-03T16:41:12.541Z,22.60
2018-09-03T16:43:47.708Z,22.70
2018-09-03T16:46:24.251Z,22.70
2018-09-03T16:48:59.925Z,22.70
2018-09-03T16:51:30.295Z,22.80
2018-09-03T16:54:05.602Z,22.80
2018-09-03T16:56:40.873Z,22.40
2018-09-03T16:59:16.796Z,22.70
2018-09-03T17:01:51.902Z,22.70
2018-09-03T17:04:27.776Z,22.70
2018-09-03T17:07:02.873Z,22.70
2018-09-03T17:09:38.967Z,22.60
2018-09-03T17:12:09.289Z,22.50
2018-09-03T17:14:45.060Z,22.50
2018-09-03T17:17:20.574Z,22.40
2018-09-03T17:19:57.396Z,22.40
2018-09-03T17:22:27.349Z,22.30
2018-09-03T17:25:02.703Z,22.30
2018-09-03T17:27:37.950Z,22.30
2018-09-03T17:30:20.181Z,22.30
2018-09-03T17:32:55.498Z,22.20
2018-09-03T17:35:31.569Z,22.20
2018-09-03T17:38:07.083Z,22.20
2018-09-03T17:40:42.764Z,22.10
2018-09-03T17:43:18.880Z,22.10
2018-09-03T17:45:54.253Z,22.10
2018-09-03T17:48:29.830Z,22.00
2018-09-03T17:51:06.116Z,22.00
2018-09-03T17:53:41.218Z,22.00
2018-09-03T17:56:16.399Z,21.90
2018-09-03T17:58:51.551Z,21.90
2018-09-03T18:01:26.734Z,21.90
2018-09-03T18:04:02.028Z,21.90
2018-09-03T18:06:37.333Z,21.80
2018-09-03T18:09:12.580Z,21.80
2018-09-03T18:11:47.720Z,21.80
2018-09-03T18:14:22.851Z,21.80
2018-09-03T18:16:57.980Z,21.70
2018-09-03T18:19:33.643Z,21.70
2018-09-03T18:22:08.881Z,21.70
2018-09-03T18:24:44.432Z,21.70
2018-09-03T18:27:19.957Z,21.70
2018-09-03T18:29:55.081Z,21.70
2018-09-03T18:32:30.865Z,21.60
2018-09-03T18:35:06.029Z,21.60
2018-09-03T18:37:41.080Z,21.60
2018-09-03T18:40:16.367Z,21.60
2018-09-03T18:42:51.257Z,21.50
2018-09-03T18:45:26.648Z,21.50
2018-09-03T18:48:01.950Z,21.50
2018-09-03T18:50:36.865Z,21.50
2018-09-03T18:53:12.137Z,21.40
2018-09-03T18:55:47.635Z,21.40
2018-09-03T18:58:23.031Z,21.40
2018-09-03T19:00:58.261Z,21.40
2018-09-03T19:03:33.299Z,21.40
2018-09-03T19:06:11.702Z,21.40
2018-09-03T19:08:48.017Z,21.40
2018-09-03T19:11:23.180Z,21.30
2018-09-03T19:13:58.936Z,21.30
2018-09-03T19:16:34.471Z,21.30
2018-09-03T19:19:10.100Z,21.30
2018-09-03T19:21:46.195Z,21.20
2018-09-03T19:24:21.568Z,21.20
2018-09-03T19:26:57.286Z,21.20
2018-09-03T19:29:32.046Z,21.20
2018-09-03T19:32:07.376Z,21.20
2018-09-03T19:34:42.508Z,21.20
2018-09-03T19:37:17.958Z,21.20
2018-09-03T19:39:53.149Z,21.20
2018-09-03T19:42:28.276Z,21.20
2018-09-03T19:45:03.635Z,21.20
2018-09-03T19:47:38.499Z,21.20
2018-09-03T19:50:13.504Z,21.20
2018-09-03T19:52:48.922Z,21.50
2018-09-03T19:55:24.013Z,21.20
2018-09-03T19:57:59.238Z,21.20
2018-09-03T20:00:34.502Z,21.20
2018-09-03T20:03:12.861Z,21.20
2018-09-03T20:05:48.192Z,21.20
2018-09-03T20:08:23.442Z,21.20
2018-09-03T20:10:58.985Z,21.20
2018-09-03T20:13:34.502Z,21.20
2018-09-03T20:16:10.335Z,21.10
2018-09-03T20:18:45.588Z,21.10
2018-09-03T20:21:21.223Z,21.10
2018-09-03T20:23:57.540Z,21.10
2018-09-03T20:26:32.980Z,21.10
2018-09-03T20:29:08.285Z,21.00
2018-09-03T20:31:43.338Z,21.00
2018-09-03T20:34:18.487Z,21.00
2018-09-03T20:37:00.647Z,21.30
2018-09-03T20:39:35.837Z,21.00
2018-09-03T20:42:11.240Z,21.00
2018-09-03T20:44:46.505Z,21.00
2018-09-03T20:47:21.945Z,21.00
2018-09-03T20:49:57.277Z,21.00
2018-09-03T20:52:33.412Z,21.00
2018-09-03T20:55:08.510Z,20.90
2018-09-03T20:57:44.093Z,21.00
2018-09-03T21:00:19.503Z,20.90
2018-09-03T21:02:55.112Z,20.70
2018-09-03T21:05:32.122Z,21.00
2018-09-03T21:08:08.054Z,20.90
2018-09-03T21:10:44.007Z,20.90
2018-09-03T21:13:19.053Z,20.90
2018-09-03T21:15:54.990Z,20.90
2018-09-03T21:18:30.353Z,20.90
2018-09-03T21:21:05.368Z,20.90
2018-09-03T21:23:40.885Z,20.90
2018-09-03T21:26:16.264Z,20.90
2018-09-03T21:28:51.150Z,20.90
2018-09-03T21:31:26.329Z,20.80
2018-09-03T21:34:01.443Z,20.80
2018-09-03T21:36:36.840Z,20.80
2018-09-03T21:39:12.021Z,20.80
2018-09-03T21:41:47.607Z,20.80
2018-09-03T21:44:22.948Z,20.80
2018-09-03T21:46:58.171Z,20.70
2018-09-03T21:49:33.619Z,20.70
2018-09-03T21:52:08.629Z,20.70
2018-09-03T21:54:43.801Z,20.70
2018-09-03T21:57:19.107Z,20.70
2018-09-03T21:59:54.040Z,20.70
2018-09-03T22:02:29.069Z,20.60
2018-09-03T22:05:04.171Z,20.60
2018-09-03T22:07:39.126Z,20.60
2018-09-03T22:10:14.495Z,20.60
2018-09-03T22:12:49.778Z,20.60
2018-09-03T22:15:25.506Z,20.60
2018-09-03T22:18:00.575Z,20.60
2018-09-03T22:20:36.759Z,20.60
2018-09-03T22:23:12.544Z,20.60
2018-09-03T22:25:47.649Z,20.50
2018-09-03T22:28:22.630Z,20.50
2018-09-03T22:30:58.531Z,20.50
2018-09-03T22:33:33.751Z,20.50
2018-09-03T22:36:09.029Z,20.50
2018-09-03T22:38:44.126Z,20.40
2018-09-03T22:41:19.271Z,20.40
2018-09-03T22:43:54.398Z,20.30
2018-09-03T22:46:29.369Z,20.30
2018-09-03T22:49:04.719Z,20.20
2018-09-03T22:51:40.912Z,20.20
2018-09-03T22:54:17.251Z,20.10
2018-09-03T22:56:52.644Z,20.10
2018-09-03T22:59:27.805Z,20.00
2018-09-03T23:02:03.095Z,20.00
2018-09-03T23:04:38.111Z,19.90
2018-09-03T23:07:13.509Z,19.90
2018-09-03T23:09:48.456Z,19.90
2018-09-03T23:12:23.736Z,19.90
2018-09-03T23:14:58.812Z,19.80
2018-09-03T23:17:34.302Z,19.80
2018-09-03T23:20:09.616Z,19.70
2018-09-03T23:22:44.789Z,19.70
2018-09-03T23:25:19.593Z,19.70
2018-09-03T23:27:55.169Z,19.60
2018-09-03T23:30:30.360Z,19.60
2018-09-03T23:33:05.809Z,19.50
2018-09-03T23:35:43.764Z,19.50
2018-09-03T23:38:19.462Z,19.50
2018-09-03T23:40:55.492Z,19.50
2018-09-03T23:43:30.430Z,19.50
2018-09-03T23:46:05.454Z,19.40
2018-09-03T23:48:40.655Z,19.40
2018-09-03T23:51:15.664Z,19.30
2018-09-03T23:53:50.611Z,19.30
2018-09-03T23:56:25.495Z,19.30
2018-09-03T23:59:00.319Z,19.20
